Time;durP1;ratioP1;P1;durP2;ratioP2;P2;SDS_P1;SDS_P2;PMS_P1;PMS_P2;Temp;Humidity;BMP_temperature;BMP_pressure;BME280_temperature;BME280_humidity;BME280_pressure;Samples;Min_cycle;Max_cycle;Signal;HPM_P1;HPM_P2
2022/06/06 08:22:44;;;;;;;3.30;1.20;;;32.10;98.50;;;;;;4202496;28;20401;-68
2022/06/06 08:24:58;;;;;;;2.88;0.93;;;32.00;98.90;;;;;;4200793;28;20086;-68
2022/06/06 08:27:17;;;;;;;3.10;0.82;;;32.10;98.90;;;;;;4187752;28;20077;-67
2022/06/06 08:29:44;;;;;;;3.70;1.13;;;32.10;99.10;;;;;;4176924;28;20136;-68
2022/06/06 08:32:01;;;;;;;2.10;1.08;;;32.10;99.20;;;;;;4192138;28;20114;-67
2022/06/06 08:34:16;;;;;;;3.22;1.00;;;32.10;99.30;;;;;;4171865;28;20048;-67
2022/06/06 08:36:37;;;;;;;4.10;1.42;;;32.10;99.00;;;;;;4193248;28;20045;-67
2022/06/06 08:39:00;;;;;;;1.90;1.00;;;32.10;98.90;;;;;;4186977;28;20052;-67
2022/06/06 08:41:36;;;;;;;2.20;1.00;;;32.10;98.90;;;;;;4186952;28;20045;-68
2022/06/06 08:44:20;;;;;;;4.07;2.08;;;32.20;99.00;;;;;;4195760;28;20048;-67
2022/06/06 08:46:49;;;;;;;4.63;2.00;;;32.10;99.50;;;;;;4189642;28;20048;-67
2022/06/06 08:51:52;;;;;;;4.63;1.60;;;32.20;99.50;;;;;;4131481;28;20131;-68
2022/06/06 08:54:18;;;;;;;2.78;1.23;;;32.30;99.40;;;;;;4182226;28;20059;-68
2022/06/06 08:56:37;;;;;;;2.92;1.30;;;32.30;99.40;;;;;;4194744;28;20041;-69
2022/06/06 08:59:12;;;;;;;4.90;1.25;;;32.30;99.20;;;;;;4163464;28;20053;-68
2022/06/06 09:01:31;;;;;;;3.05;0.98;;;32.30;99.30;;;;;;4187876;28;20051;-67
2022/06/06 09:04:12;;;;;;;2.58;0.98;;;32.30;99.50;;;;;;4191943;28;20047;-68
2022/06/06 09:06:46;;;;;;;3.72;1.08;;;32.30;99.80;;;;;;4185606;28;20037;-68
2022/06/06 09:09:11;;;;;;;3.35;1.45;;;32.20;99.20;;;;;;4175180;28;20080;-68
2022/06/06 09:11:46;;;;;;;4.00;2.05;;;32.10;98.80;;;;;;4189379;28;20068;-67
2022/06/06 09:14:11;;;;;;;6.53;2.50;;;32.10;98.80;;;;;;4181552;28;20045;-68
2022/06/06 09:16:29;;;;;;;4.50;1.73;;;32.10;98.60;;;;;;4192859;28;20541;-67
2022/06/06 09:18:49;;;;;;;7.03;1.60;;;31.90;98.50;;;;;;4200928;28;20104;-67
2022/06/06 09:21:05;;;;;;;4.93;1.85;;;31.10;98.50;;;;;;4193231;28;20083;-68
2022/06/06 09:23:31;;;;;;;5.25;2.00;;;30.90;99.10;;;;;;4201541;28;20256;-68
2022/06/06 09:26:02;;;;;;;4.55;1.48;;;30.80;98.40;;;;;;4188323;28;20063;-69
2022/06/06 09:28:42;;;;;;;1.73;0.77;;;30.40;98.30;;;;;;4148770;28;20046;-68
2022/06/06 09:31:13;;;;;;;3.83;1.45;;;30.00;97.90;;;;;;4179676;28;20041;-67
2022/06/06 09:33:54;;;;;;;3.03;1.50;;;30.00;98.10;;;;;;4180175;28;20083;-67
2022/06/06 09:36:31;;;;;;;3.47;1.00;;;29.60;99.20;;;;;;4170863;28;20041;-69
2022/06/06 09:39:08;;;;;;;4.72;1.20;;;29.30;99.60;;;;;;4157074;28;20053;-69
2022/06/06 09:41:42;;;;;;;4.47;0.80;;;29.40;98.90;;;;;;4151150;28;20054;-69
2022/06/06 09:44:10;;;;;;;1.88;0.52;;;29.50;98.20;;;;;;4164081;28;20053;-70
2022/06/06 09:46:48;;;;;;;2.75;0.70;;;29.60;97.80;;;;;;4158900;28;20042;-68
2022/06/06 09:49:21;;;;;;;1.98;0.68;;;29.70;97.80;;;;;;4149903;28;20046;-69
2022/06/06 09:51:55;;;;;;;3.85;1.30;;;30.00;97.60;;;;;;4151099;28;20078;-70
2022/06/06 10:00:03;;;;;;;4.30;3.33;;;30.40;97.30;;;;;;4152752;28;20127;-68
2022/06/06 10:02:29;;;;;;;4.55;3.20;;;30.50;97.20;;;;;;4139112;28;20058;-70
2022/06/06 10:05:05;;;;;;;3.38;1.70;;;30.60;97.60;;;;;;4169187;28;20055;-69
2022/06/06 10:07:32;;;;;;;4.72;2.88;;;30.60;97.40;;;;;;4154257;28;20046;-69
2022/06/06 10:09:55;;;;;;;3.65;1.70;;;30.50;97.60;;;;;;4138982;28;20106;-68
2022/06/06 10:12:24;;;;;;;3.35;1.60;;;30.50;97.50;;;;;;4138225;28;20575;-69
2022/06/06 10:14:54;;;;;;;13.38;8.93;;;30.50;97.50;;;;;;4137830;28;20050;-68
2022/06/06 10:17:32;;;;;;;16.20;10.07;;;30.60;97.40;;;;;;4154647;28;20042;-69
2022/06/06 10:19:59;;;;;;;18.30;14.02;;;30.60;97.20;;;;;;4111094;28;20054;-68
2022/06/06 10:22:37;;;;;;;8.40;4.70;;;30.60;97.00;;;;;;4152620;28;20054;-69
2022/06/06 10:25:15;;;;;;;8.20;3.60;;;30.50;97.30;;;;;;4155239;28;20105;-68
2022/06/06 10:27:36;;;;;;;4.78;3.00;;;30.40;98.00;;;;;;4139344;28;20130;-70
2022/06/06 10:32:54;;;;;;;4.50;3.00;;;30.40;98.50;;;;;;4162616;28;20057;-67
2022/06/06 10:35:26;;;;;;;6.68;3.17;;;30.50;98.40;;;;;;4152353;28;20049;-68
2022/06/06 10:37:53;;;;;;;6.30;3.22;;;30.40;98.60;;;;;;4142388;28;20061;-68
2022/06/06 10:40:11;;;;;;;9.95;3.35;;;30.40;98.90;;;;;;4154061;28;20046;-68
2022/06/06 10:42:27;;;;;;;9.48;3.72;;;30.50;99.00;;;;;;4164990;28;20045;-69
2022/06/06 10:44:58;;;;;;;11.88;4.25;;;30.40;99.50;;;;;;4176748;28;20159;-69
2022/06/06 10:47:06;;;;;;;8.95;3.60;;;30.40;99.00;;;;;;4172389;28;20051;-70
2022/06/06 10:49:35;;;;;;;7.63;3.83;;;30.40;98.90;;;;;;4177780;28;20079;-70
2022/06/06 10:51:56;;;;;;;11.30;4.05;;;30.50;99.00;;;;;;4176920;28;20080;-69
2022/06/06 10:54:24;;;;;;;10.60;6.22;;;30.50;99.10;;;;;;4171413;28;20041;-69
2022/06/06 10:56:45;;;;;;;15.18;8.98;;;30.50;99.10;;;;;;4180787;28;20041;-70
2022/06/06 10:59:26;;;;;;;8.55;5.68;;;30.50;99.20;;;;;;4179418;28;20103;-70
2022/06/06 11:01:37;;;;;;;8.25;3.65;;;30.40;99.40;;;;;;4173865;28;20057;-70
2022/06/06 11:03:55;;;;;;;8.80;4.05;;;30.50;99.10;;;;;;4179032;28;20065;-69
2022/06/06 11:06:11;;;;;;;9.15;3.33;;;30.40;99.50;;;;;;4179422;28;20068;-70
2022/06/06 11:08:54;;;;;;;10.65;4.18;;;30.30;99.40;;;;;;4178972;28;20099;-71
2022/06/06 11:11:16;;;;;;;8.43;4.00;;;30.30;99.70;;;;;;4182057;28;20037;-70
2022/06/06 11:13:49;;;;;;;9.63;3.67;;;30.30;99.90;;;;;;4151564;28;20614;-71
2022/06/06 11:16:00;;;;;;;11.90;4.72;;;30.30;99.90;;;;;;4169237;28;20045;-71
2022/06/06 11:18:27;;;;;;;13.52;7.63;;;30.30;99.90;;;;;;4168393;28;20076;-70
2022/06/06 11:20:49;;;;;;;21.13;10.10;;;30.40;99.90;;;;;;4170907;28;20045;-71
2022/06/06 11:23:32;;;;;;;22.95;11.10;;;30.40;99.90;;;;;;4176124;28;20034;-70
2022/06/06 11:26:04;;;;;;;21.88;12.00;;;30.40;99.90;;;;;;4172767;28;20036;-69
2022/06/06 11:28:26;;;;;;;23.50;13.77;;;30.40;99.90;;;;;;4174337;28;20091;-71
2022/06/06 11:30:45;;;;;;;31.65;19.67;;;30.30;99.90;;;;;;4166567;28;20038;-68
2022/06/06 11:33:35;;;;;;;32.20;19.48;;;30.30;99.90;;;;;;4152018;28;20061;-70
2022/06/06 11:36:02;;;;;;;30.85;17.83;;;30.30;99.90;;;;;;4165738;28;20088;-71
2022/06/06 11:38:34;;;;;;;25.67;17.48;;;30.30;99.90;;;;;;4168235;28;20557;-69
2022/06/06 11:41:07;;;;;;;21.73;12.52;;;30.30;99.90;;;;;;4175426;28;20083;-71
2022/06/06 11:43:44;;;;;;;18.80;10.45;;;30.20;99.90;;;;;;4157467;28;20524;-70
2022/06/06 11:46:23;;;;;;;12.85;9.13;;;30.10;99.90;;;;;;4173723;28;20045;-71
2022/06/06 11:48:55;;;;;;;13.60;8.77;;;30.10;99.90;;;;;;4171560;28;20457;-71
2022/06/06 11:51:15;;;;;;;11.43;7.47;;;30.10;99.90;;;;;;4165567;28;20069;-72
2022/06/06 11:53:38;;;;;;;11.93;6.88;;;30.20;99.90;;;;;;4169802;28;20040;-71
2022/06/06 11:56:19;;;;;;;12.95;7.25;;;30.10;99.90;;;;;;4171475;28;20056;-69
2022/06/06 11:58:40;;;;;;;18.23;10.63;;;30.00;99.90;;;;;;4174138;28;20049;-69
2022/06/06 12:01:29;;;;;;;24.50;17.63;;;29.90;99.90;;;;;;4160784;28;20069;-70
2022/06/06 12:03:51;;;;;;;;;;;29.90;99.90;;;;;;4174838;28;20053;-70
2022/06/06 12:06:12;;;;;;;18.63;11.45;;;29.90;99.90;;;;;;4175376;28;19929;-69
2022/06/06 12:08:29;;;;;;;16.30;9.90;;;29.90;99.90;;;;;;4174993;28;20053;-69
2022/06/06 12:10:54;;;;;;;18.02;10.70;;;29.90;99.90;;;;;;4164708;28;20116;-69
2022/06/06 12:13:21;;;;;;;15.20;10.15;;;29.90;99.90;;;;;;4141724;28;20041;-69
2022/06/06 12:15:59;;;;;;;14.32;9.52;;;29.90;99.90;;;;;;4114954;28;20124;-69
2022/06/06 12:18:28;;;;;;;16.00;11.55;;;29.90;99.90;;;;;;4115728;28;20058;-69
2022/06/06 12:21:08;;;;;;;19.75;11.63;;;29.90;99.90;;;;;;4103192;28;20078;-68
2022/06/06 12:23:36;;;;;;;18.10;10.27;;;29.90;99.90;;;;;;4090368;28;20054;-69
2022/06/06 12:26:00;;;;;;;16.10;8.57;;;29.90;99.90;;;;;;4134600;28;20038;-69
2022/06/06 12:28:30;;;;;;;12.50;7.28;;;29.90;99.90;;;;;;4136396;28;20127;-70
2022/06/06 12:31:02;;;;;;;10.98;6.10;;;29.90;99.90;;;;;;4136917;28;20100;-70
2022/06/06 12:33:28;;;;;;;8.27;5.40;;;29.90;99.90;;;;;;4139170;28;20670;-68
2022/06/06 12:36:09;;;;;;;8.98;6.10;;;29.80;99.90;;;;;;4136563;28;20056;-69
2022/06/06 12:38:34;;;;;;;8.82;5.88;;;29.80;99.90;;;;;;4124006;28;20054;-68
2022/06/06 12:40:56;;;;;;;12.15;7.65;;;29.80;99.90;;;;;;4137464;28;20045;-70
2022/06/06 12:43:20;;;;;;;12.32;7.43;;;29.80;99.90;;;;;;4133765;28;20093;-69
2022/06/06 12:45:53;;;;;;;14.60;9.70;;;29.80;99.90;;;;;;4134873;28;20046;-69
2022/06/06 12:48:33;;;;;;;15.35;8.32;;;29.80;99.90;;;;;;4117403;28;20414;-70
2022/06/06 12:51:01;;;;;;;15.50;10.43;;;29.80;99.90;;;;;;4138499;28;20587;-69
2022/06/06 12:53:30;;;;;;;11.07;6.78;;;29.80;99.90;;;;;;4122265;28;20162;-69
2022/06/06 12:58:40;;;;;;;12.10;7.68;;;29.80;99.90;;;;;;4135595;28;20060;-69
2022/06/06 13:03:49;;;;;;;30.15;19.58;;;29.70;99.90;;;;;;4157485;28;20072;-69
2022/06/06 13:06:22;;;;;;;33.92;28.08;;;29.70;99.90;;;;;;4174659;28;20053;-68
2022/06/06 13:08:40;;;;;;;34.55;25.13;;;29.70;99.90;;;;;;4168572;28;20056;-69
2022/06/06 13:10:50;;;;;;;;;;;29.70;99.90;;;;;;4172755;28;20052;-69
2022/06/06 13:13:17;;;;;;;31.80;22.95;;;29.70;99.90;;;;;;4174897;28;19925;-69
2022/06/06 13:15:43;;;;;;;40.90;32.53;;;29.70;99.90;;;;;;4174417;28;20108;-68
2022/06/06 13:18:22;;;;;;;41.78;35.28;;;29.70;99.90;;;;;;4167830;28;20045;-70
2022/06/06 13:20:53;;;;;;;36.08;25.88;;;29.70;99.90;;;;;;4194635;28;20059;-70
2022/06/06 13:23:29;;;;;;;42.20;30.10;;;29.70;99.90;;;;;;4166358;28;20458;-70
2022/06/06 13:25:41;;;;;;;46.88;37.25;;;29.70;99.90;;;;;;4170882;28;20081;-69
2022/06/06 13:28:15;;;;;;;26.52;19.75;;;29.70;99.90;;;;;;4169981;28;20388;-69
2022/06/06 13:30:26;;;;;;;29.20;16.80;;;29.60;99.90;;;;;;4171967;28;20140;-71
2022/06/06 13:33:15;;;;;;;32.15;23.58;;;29.60;99.90;;;;;;4183396;28;20105;-69
2022/06/06 13:35:34;;;;;;;27.15;21.95;;;29.60;99.90;;;;;;4173488;28;20049;-70
2022/06/06 13:37:55;;;;;;;23.25;17.25;;;29.60;99.90;;;;;;4172813;28;20069;-70
2022/06/06 13:40:25;;;;;;;21.52;13.98;;;29.60;99.90;;;;;;4178656;28;20070;-70
2022/06/06 13:42:49;;;;;;;24.40;14.23;;;29.60;99.90;;;;;;4183136;28;20458;-71
2022/06/06 13:45:15;;;;;;;24.70;14.05;;;29.60;99.90;;;;;;4180625;28;20049;-70
2022/06/06 13:47:53;;;;;;;28.08;15.30;;;29.50;99.90;;;;;;4176810;28;20487;-71
2022/06/06 13:50:25;;;;;;;32.33;16.85;;;29.50;99.90;;;;;;4193508;28;20044;-73
2022/06/06 13:52:51;;;;;;;32.55;17.70;;;29.60;99.90;;;;;;4206964;28;20051;-72
2022/06/06 13:55:25;;;;;;;39.65;21.02;;;29.50;99.90;;;;;;4174187;28;20041;-70
2022/06/06 13:57:58;;;;;;;41.80;23.40;;;29.50;99.90;;;;;;4171035;28;20095;-71
2022/06/06 14:00:14;;;;;;;39.95;21.98;;;29.50;99.90;;;;;;4172951;28;20065;-70
2022/06/06 14:02:40;;;;;;;43.67;21.45;;;29.50;99.90;;;;;;4171839;28;20049;-70
2022/06/06 14:05:13;;;;;;;31.75;17.83;;;29.60;99.90;;;;;;4173153;28;20077;-70
2022/06/06 14:07:47;;;;;;;24.80;14.18;;;29.50;99.90;;;;;;4169187;28;20041;-69
2022/06/06 14:10:17;;;;;;;26.05;13.77;;;29.50;99.90;;;;;;4183507;28;20491;-70
2022/06/06 14:12:56;;;;;;;20.98;12.20;;;29.50;99.90;;;;;;4174548;28;20091;-70
2022/06/06 14:15:10;;;;;;;19.60;10.02;;;29.50;99.90;;;;;;4183176;28;20045;-70
2022/06/06 14:17:26;;;;;;;17.92;8.57;;;29.50;99.90;;;;;;4171157;28;20049;-70
2022/06/06 14:19:48;;;;;;;12.93;7.68;;;29.50;99.90;;;;;;4182546;28;20045;-69
2022/06/06 14:22:03;;;;;;;14.90;7.63;;;29.50;99.90;;;;;;4184171;28;20053;-70
2022/06/06 14:24:10;;;;;;;12.80;7.57;;;29.50;99.90;;;;;;4187225;28;20045;-70
2022/06/06 14:26:20;;;;;;;18.60;8.88;;;29.50;99.90;;;;;;4175135;28;20045;-69
2022/06/06 14:28:42;;;;;;;16.48;9.57;;;29.50;99.90;;;;;;4177416;28;20072;-69
2022/06/06 14:30:50;;;;;;;15.63;8.40;;;29.40;99.90;;;;;;4175662;28;20046;-71
2022/06/06 14:33:00;;;;;;;13.45;8.45;;;29.40;99.90;;;;;;4155316;28;20054;-70
2022/06/06 14:35:37;;;;;;;15.13;8.10;;;29.40;99.90;;;;;;4142231;28;20054;-70
2022/06/06 14:38:08;;;;;;;13.43;7.82;;;29.40;99.90;;;;;;4165134;28;20096;-70
2022/06/06 14:40:47;;;;;;;15.60;8.35;;;29.40;99.90;;;;;;4128241;28;20155;-70
2022/06/06 14:43:01;;;;;;;17.45;8.40;;;29.40;99.90;;;;;;4130527;28;20078;-70
2022/06/06 14:45:30;;;;;;;13.13;7.47;;;29.40;99.90;;;;;;4130359;28;20050;-69
2022/06/06 14:47:52;;;;;;;13.27;7.05;;;29.40;99.90;;;;;;4125714;28;20107;-70
2022/06/06 14:52:40;;;;;;;8.35;4.93;;;29.40;99.90;;;;;;4127575;28;20508;-70
2022/06/06 14:55:07;;;;;;;15.48;5.55;;;29.40;99.90;;;;;;4133265;28;20065;-70
2022/06/06 14:57:17;;;;;;;6.85;4.60;;;29.40;99.90;;;;;;4142748;28;20054;-69
2022/06/06 14:59:41;;;;;;;10.02;4.30;;;29.40;99.90;;;;;;4152738;28;20094;-69
2022/06/06 15:01:49;;;;;;;6.95;4.65;;;29.40;99.90;;;;;;4152045;28;20069;-70
2022/06/06 15:04:21;;;;;;;6.80;4.35;;;29.30;99.90;;;;;;4152497;28;20045;-69
2022/06/06 15:06:30;;;;;;;9.30;4.30;;;29.40;99.90;;;;;;4175876;28;20048;-69
2022/06/06 15:09:09;;;;;;;10.13;4.70;;;29.40;99.90;;;;;;4112134;28;20061;-70
2022/06/06 15:11:18;;;;;;;19.35;13.35;;;29.30;99.90;;;;;;4162550;28;20100;-70
2022/06/06 15:13:24;;;;;;;22.35;15.57;;;29.30;99.90;;;;;;4180258;28;20053;-72
2022/06/06 15:15:52;;;;;;;17.60;12.63;;;29.40;99.90;;;;;;4119708;28;20069;-70
2022/06/06 15:18:07;;;;;;;8.25;5.97;;;29.30;99.90;;;;;;4185866;28;20117;-70
2022/06/06 15:20:29;;;;;;;7.00;4.30;;;29.30;99.90;;;;;;4184691;28;20057;-70
2022/06/06 15:22:46;;;;;;;10.50;4.22;;;29.30;99.90;;;;;;4178066;28;20099;-70
2022/06/06 15:24:52;;;;;;;6.85;3.40;;;29.30;99.90;;;;;;4181741;28;20504;-70
2022/06/06 15:27:20;;;;;;;7.57;3.10;;;29.30;99.90;;;;;;4180603;28;20084;-70
2022/06/06 15:29:48;;;;;;;10.32;2.97;;;29.30;99.90;;;;;;4176591;28;20037;-70
2022/06/06 15:32:22;;;;;;;7.80;3.00;;;29.20;99.90;;;;;;4179972;28;20053;-70
2022/06/06 15:34:42;;;;;;;4.93;2.97;;;29.20;99.90;;;;;;4159019;28;20576;-70
2022/06/06 15:36:57;;;;;;;5.47;2.80;;;29.30;99.90;;;;;;4170399;28;20046;-70
2022/06/06 15:39:17;;;;;;;5.03;2.47;;;29.30;99.90;;;;;;4181413;28;20060;-69
2022/06/06 15:41:56;;;;;;;6.13;2.80;;;29.20;99.90;;;;;;4208072;28;20040;-69
2022/06/06 15:44:20;;;;;;;5.82;2.78;;;29.30;99.90;;;;;;4169799;28;20779;-69
2022/06/06 15:46:46;;;;;;;4.93;2.30;;;29.20;99.90;;;;;;4177707;28;20033;-70
2022/06/06 15:49:15;;;;;;;4.90;2.40;;;29.20;99.90;;;;;;4159389;28;20510;-68
2022/06/06 15:51:49;;;;;;;5.00;2.47;;;29.20;99.90;;;;;;4162373;28;20068;-70
2022/06/06 15:54:17;;;;;;;10.10;2.30;;;29.20;99.90;;;;;;4161934;28;20492;-70
2022/06/06 15:56:42;;;;;;;5.47;2.47;;;29.20;99.90;;;;;;4154810;28;20063;-69
2022/06/06 15:59:21;;;;;;;5.43;2.55;;;29.20;99.90;;;;;;4170167;28;20098;-71
2022/06/06 16:01:53;;;;;;;4.50;2.30;;;29.30;99.90;;;;;;4154520;28;20868;-69
2022/06/06 16:04:15;;;;;;;14.38;3.22;;;29.20;99.90;;;;;;4167989;28;20041;-70
2022/06/06 16:06:27;;;;;;;4.85;2.70;;;29.20;99.90;;;;;;4185059;28;20045;-68
2022/06/06 16:08:36;;;;;;;3.90;2.33;;;29.20;99.90;;;;;;4141088;28;20082;-70
2022/06/06 16:11:04;;;;;;;8.95;2.50;;;29.20;99.90;;;;;;4166456;28;20057;-69
2022/06/06 16:13:24;;;;;;;5.50;2.10;;;29.20;99.90;;;;;;4176945;28;20041;-69
2022/06/06 16:15:34;;;;;;;3.70;1.90;;;29.20;99.90;;;;;;4185745;28;20052;-70
2022/06/06 16:17:54;;;;;;;6.90;2.13;;;29.20;99.90;;;;;;4178070;28;20455;-70
2022/06/06 16:20:12;;;;;;;7.47;1.60;;;29.20;99.90;;;;;;4182289;28;20049;-69
2022/06/06 16:22:29;;;;;;;4.68;1.70;;;29.20;99.90;;;;;;4167511;28;20067;-70
2022/06/06 16:24:47;;;;;;;5.25;1.85;;;29.20;99.90;;;;;;4177394;28;20041;-70
2022/06/06 16:27:20;;;;;;;2.55;1.83;;;29.20;99.90;;;;;;4181763;28;20045;-69
2022/06/06 16:29:43;;;;;;;3.72;1.80;;;29.20;99.90;;;;;;4171888;28;20096;-70
2022/06/06 16:31:55;;;;;;;3.75;1.83;;;29.20;99.90;;;;;;4184803;28;20056;-70
2022/06/06 16:34:21;;;;;;;4.50;2.20;;;29.20;99.90;;;;;;4173012;28;20817;-70
2022/06/06 16:37:00;;;;;;;3.60;1.88;;;29.20;99.90;;;;;;4167350;28;20061;-70
2022/06/06 16:39:25;;;;;;;4.28;1.95;;;29.10;99.90;;;;;;4171766;28;20654;-71
2022/06/06 16:49:01;;;;;;;7.37;4.03;;;29.00;99.90;;;;;;4137901;28;20046;-71
2022/06/06 16:51:43;;;;;;;4.45;2.05;;;29.00;99.90;;;;;;4198800;28;20283;-70
2022/06/06 16:54:17;;;;;;;3.47;1.60;;;29.10;99.90;;;;;;4183022;28;20059;-70
2022/06/06 16:56:39;;;;;;;2.78;1.45;;;29.00;99.90;;;;;;4183516;28;20108;-69
2022/06/06 16:59:13;;;;;;;10.48;5.05;;;29.00;99.90;;;;;;4165703;28;20087;-70
2022/06/06 17:01:48;;;;;;;4.03;2.50;;;28.90;99.90;;;;;;4122683;28;20115;-70
2022/06/06 17:04:24;;;;;;;6.55;3.55;;;29.00;99.90;;;;;;4168678;28;20065;-69
2022/06/06 17:09:33;;;;;;;7.38;2.30;;;29.00;99.90;;;;;;4175831;28;20056;-69
2022/06/06 17:11:42;;;;;;;3.78;1.77;;;28.90;99.90;;;;;;4141904;28;20129;-70
2022/06/06 17:13:57;;;;;;;2.17;1.52;;;28.90;99.90;;;;;;4184248;28;20057;-70
2022/06/06 17:16:33;;;;;;;3.22;1.70;;;28.90;99.90;;;;;;4167863;28;20052;-70
2022/06/06 17:19:00;;;;;;;5.30;2.40;;;28.90;99.90;;;;;;4184426;28;20072;-70
2022/06/06 17:21:23;;;;;;;4.25;2.15;;;28.90;99.90;;;;;;4177422;28;20053;-69
2022/06/06 17:23:31;;;;;;;4.07;1.80;;;28.90;99.90;;;;;;4187849;28;20075;-70
2022/06/06 17:25:50;;;;;;;5.32;1.58;;;28.90;99.90;;;;;;4169773;28;20080;-71
2022/06/06 17:28:27;;;;;;;6.20;1.20;;;28.90;99.90;;;;;;4166938;28;20045;-69
2022/06/06 17:31:03;;;;;;;3.67;1.58;;;28.90;99.90;;;;;;4175855;28;20160;-70
2022/06/06 17:34:03;;;;;;;3.53;1.23;;;28.80;99.90;;;;;;4147046;28;20053;-70
2022/06/06 17:36:38;;;;;;;7.85;3.95;;;28.80;99.90;;;;;;4176058;28;20566;-70
2022/06/06 17:39:14;;;;;;;7.60;3.45;;;28.80;99.90;;;;;;4142952;28;20117;-71
2022/06/06 17:41:29;;;;;;;6.03;2.53;;;28.80;99.90;;;;;;4157247;28;20485;-71
2022/06/06 17:44:04;;;;;;;4.30;1.88;;;28.80;99.90;;;;;;4186296;28;20048;-70
2022/06/06 17:46:19;;;;;;;4.65;1.45;;;28.80;99.90;;;;;;4176887;28;20410;-70
2022/06/06 17:48:51;;;;;;;2.75;1.80;;;28.80;99.90;;;;;;4188382;28;20127;-69
2022/06/06 17:51:38;;;;;;;4.32;2.13;;;28.80;99.90;;;;;;4160431;28;20130;-69
2022/06/06 17:53:54;;;;;;;2.47;1.40;;;28.70;99.90;;;;;;4165388;28;20072;-71
2022/06/06 17:56:26;;;;;;;5.10;1.20;;;28.80;99.90;;;;;;4162025;28;20048;-69
2022/06/06 17:58:38;;;;;;;7.00;1.65;;;28.70;99.90;;;;;;4176834;28;20052;-69
2022/06/06 18:00:55;;;;;;;4.93;1.58;;;28.70;99.90;;;;;;4163769;28;20049;-71
2022/06/06 18:03:31;;;;;;;2.00;1.00;;;28.80;99.90;;;;;;4175945;28;20056;-70
2022/06/06 18:06:04;;;;;;;4.57;1.10;;;28.80;99.90;;;;;;4176860;28;20101;-69
2022/06/06 18:08:48;;;;;;;4.18;0.90;;;28.80;99.90;;;;;;4138400;28;20667;-69
2022/06/06 18:11:26;;;;;;;3.63;1.00;;;28.80;99.90;;;;;;4138208;28;20101;-69
2022/06/06 18:14:08;;;;;;;3.47;1.42;;;28.80;99.90;;;;;;4124734;28;20058;-70
2022/06/06 18:16:37;;;;;;;5.80;2.63;;;28.80;99.90;;;;;;4145182;28;20062;-69
2022/06/06 18:18:57;;;;;;;3.13;1.77;;;28.70;99.90;;;;;;4072470;29;20462;-69
2022/06/06 18:21:21;;;;;;;3.65;1.42;;;28.70;99.90;;;;;;4131551;28;20162;-70
2022/06/06 18:23:43;;;;;;;4.32;1.40;;;28.70;99.90;;;;;;4121372;28;20450;-70
2022/06/06 18:26:00;;;;;;;2.83;1.63;;;28.70;99.90;;;;;;4122376;28;20047;-70
2022/06/06 18:28:07;;;;;;;3.45;1.42;;;28.60;99.90;;;;;;4122619;28;20106;-70
2022/06/06 18:30:28;;;;;;;1.65;1.00;;;28.60;99.90;;;;;;4122496;28;20042;-70
2022/06/06 18:32:38;;;;;;;3.95;1.58;;;28.60;99.90;;;;;;4119547;28;20047;-70
2022/06/06 18:34:53;;;;;;;4.07;0.93;;;28.60;99.90;;;;;;4117681;28;20051;-69
2022/06/06 18:37:21;;;;;;;2.28;1.17;;;28.60;99.90;;;;;;4124710;28;20082;-70
2022/06/06 18:39:44;;;;;;;2.95;1.10;;;28.70;99.90;;;;;;4113572;28;20049;-70
2022/06/06 18:42:00;;;;;;;3.90;1.40;;;28.70;99.90;;;;;;4202527;28;20503;-71
2022/06/06 18:44:26;;;;;;;3.95;1.00;;;28.70;99.90;;;;;;4159652;28;20049;-69
2022/06/06 18:46:53;;;;;;;3.70;1.25;;;28.70;99.90;;;;;;4124969;28;20563;-70
2022/06/06 18:49:01;;;;;;;3.75;1.33;;;28.60;99.90;;;;;;4138469;28;20057;-70
2022/06/06 18:51:26;;;;;;;6.15;1.38;;;28.60;99.90;;;;;;4140895;28;20047;-69
2022/06/06 18:53:57;;;;;;;3.42;1.02;;;28.60;99.90;;;;;;4138287;28;20088;-70
2022/06/06 18:56:03;;;;;;;2.95;1.10;;;28.60;99.90;;;;;;4139733;28;20051;-69
2022/06/06 18:58:43;;;;;;;4.10;1.20;;;28.60;99.90;;;;;;4122381;28;20051;-69
2022/06/06 19:00:57;;;;;;;4.70;1.27;;;28.60;99.90;;;;;;4121096;28;20102;-70
2022/06/06 19:03:02;;;;;;;2.92;1.38;;;28.60;99.90;;;;;;4143273;28;20428;-70
2022/06/06 19:05:40;;;;;;;5.65;1.33;;;28.60;99.90;;;;;;4139475;28;20137;-70
2022/06/06 19:08:14;;;;;;;2.58;1.23;;;28.50;99.90;;;;;;4125282;28;20043;-69
2022/06/06 19:10:32;;;;;;;3.55;1.50;;;28.60;99.90;;;;;;4137434;28;20061;-70
2022/06/06 19:13:01;;;;;;;3.88;1.17;;;28.50;99.90;;;;;;4109433;28;20110;-70
2022/06/06 19:15:31;;;;;;;4.25;1.42;;;28.50;99.90;;;;;;4136500;28;20085;-69
2022/06/06 19:17:44;;;;;;;4.10;1.25;;;28.50;99.90;;;;;;4146038;28;20599;-70
2022/06/06 19:20:29;;;;;;;5.73;1.97;;;28.50;99.90;;;;;;4138537;28;20053;-70
2022/06/06 19:22:34;;;;;;;5.38;1.45;;;28.50;99.90;;;;;;4171105;28;20292;-69
2022/06/06 19:25:01;;;;;;;3.17;1.20;;;28.50;99.90;;;;;;4143959;28;20042;-70
2022/06/06 19:27:25;;;;;;;5.47;1.55;;;28.50;99.90;;;;;;4170084;28;20468;-69
2022/06/06 19:29:40;;;;;;;4.38;1.30;;;28.50;99.90;;;;;;4094907;28;20058;-69
2022/06/06 19:32:13;;;;;;;3.88;1.30;;;28.50;99.90;;;;;;4143356;28;20046;-70
2022/06/06 19:34:33;;;;;;;5.18;1.30;;;28.50;99.90;;;;;;4161468;28;20806;-70
2022/06/06 19:39:33;;;;;;;3.65;1.20;;;28.50;99.90;;;;;;4184123;28;20080;-69
2022/06/06 19:41:45;;;;;;;2.47;1.20;;;28.50;99.90;;;;;;4172139;28;20053;-69
2022/06/06 19:43:55;;;;;;;4.97;1.23;;;28.50;99.90;;;;;;4176646;28;20077;-71
2022/06/06 19:46:10;;;;;;;5.07;1.23;;;28.50;99.90;;;;;;4174708;28;20088;-68
2022/06/06 19:48:45;;;;;;;4.15;1.10;;;28.50;99.90;;;;;;4182931;28;20041;-69
2022/06/06 19:51:04;;;;;;;5.13;1.27;;;28.50;99.90;;;;;;4146355;28;20106;-69
2022/06/06 19:53:32;;;;;;;2.90;1.17;;;28.50;99.90;;;;;;4173217;28;20071;-70
2022/06/06 19:56:12;;;;;;;5.55;1.55;;;28.50;99.90;;;;;;4156201;28;20091;-70
2022/06/06 19:58:24;;;;;;;1.13;0.90;;;28.50;99.90;;;;;;4183253;28;20036;-70
2022/06/06 20:00:49;;;;;;;4.00;1.10;;;28.50;99.90;;;;;;4171512;28;20087;-70
2022/06/06 20:02:57;;;;;;;2.85;1.00;;;28.50;99.90;;;;;;4170951;28;20049;-69
2022/06/06 20:05:18;;;;;;;1.63;0.98;;;28.50;99.90;;;;;;4181597;28;20033;-69
2022/06/06 20:07:42;;;;;;;4.30;1.23;;;28.50;99.90;;;;;;4177769;28;20132;-69
2022/06/06 20:09:57;;;;;;;2.35;1.00;;;28.50;99.90;;;;;;4169620;28;20385;-69
2022/06/06 20:12:07;;;;;;;3.25;1.42;;;28.50;99.90;;;;;;4175865;28;20073;-68
2022/06/06 20:14:26;;;;;;;1.73;1.00;;;28.40;99.90;;;;;;4175036;28;20051;-69
2022/06/06 20:16:42;;;;;;;2.90;1.25;;;28.40;99.90;;;;;;4170858;28;20460;-69
2022/06/06 20:18:56;;;;;;;3.10;1.10;;;28.40;99.90;;;;;;4175689;28;20366;-69
2022/06/06 20:21:23;;;;;;;5.40;1.20;;;28.50;99.90;;;;;;4161315;28;20084;-69
2022/06/06 20:23:42;;;;;;;5.03;1.00;;;28.50;99.90;;;;;;4184230;28;20084;-69
2022/06/06 20:25:55;;;;;;;4.05;1.10;;;28.50;99.90;;;;;;4155355;28;20096;-69
2022/06/06 20:28:29;;;;;;;2.63;0.90;;;28.40;99.90;;;;;;4155203;28;20042;-69
2022/06/06 20:33:23;;;;;;;3.00;0.70;;;28.40;99.90;;;;;;4175144;28;20056;-69
2022/06/06 20:35:34;;;;;;;2.40;0.77;;;28.40;99.90;;;;;;4173316;28;20040;-69
2022/06/06 20:38:08;;;;;;;2.13;1.00;;;28.40;99.90;;;;;;4187109;28;20060;-69
2022/06/06 20:40:30;;;;;;;2.13;1.20;;;28.40;99.90;;;;;;4175135;28;20056;-69
2022/06/06 20:42:52;;;;;;;2.05;0.88;;;28.40;99.90;;;;;;4183832;28;20044;-70
2022/06/06 20:45:23;;;;;;;2.42;0.90;;;28.40;99.90;;;;;;4175768;28;20056;-69
2022/06/06 20:47:34;;;;;;;3.90;0.90;;;28.40;99.90;;;;;;4178782;28;20103;-70
2022/06/06 20:49:46;;;;;;;4.00;1.05;;;28.40;99.90;;;;;;4186495;28;20136;-71
2022/06/06 20:51:55;;;;;;;1.70;0.80;;;28.40;99.90;;;;;;4181176;28;20103;-71
2022/06/06 20:54:28;;;;;;;2.13;0.80;;;28.40;99.90;;;;;;4176076;28;20037;-69
2022/06/06 20:56:45;;;;;;;1.70;0.75;;;28.40;99.90;;;;;;4173467;28;20056;-69
2022/06/06 20:58:54;;;;;;;2.53;1.00;;;28.40;99.90;;;;;;4154809;28;20452;-70
2022/06/06 21:01:06;;;;;;;1.58;0.60;;;28.40;99.90;;;;;;4178163;28;20059;-70
2022/06/06 21:03:17;;;;;;;2.97;0.90;;;28.30;99.90;;;;;;4170218;28;20046;-70
2022/06/06 21:05:46;;;;;;;2.05;0.80;;;28.40;99.90;;;;;;4180851;28;20069;-69
2022/06/06 21:08:42;;;;;;;3.15;1.00;;;28.40;99.90;;;;;;4174258;28;20048;-69
2022/06/06 21:10:55;;;;;;;3.95;1.30;;;28.30;99.90;;;;;;4172214;28;20090;-69
2022/06/06 21:13:20;;;;;;;2.83;1.00;;;28.30;99.90;;;;;;4177150;28;20041;-69
2022/06/06 21:15:30;;;;;;;4.38;1.27;;;28.30;99.90;;;;;;4188660;28;20048;-69
2022/06/06 21:17:37;;;;;;;1.77;1.10;;;28.30;99.90;;;;;;4179026;28;20045;-69
2022/06/06 21:19:51;;;;;;;3.33;1.05;;;28.40;99.90;;;;;;4182697;28;20045;-69
2022/06/06 21:22:16;;;;;;;2.65;0.93;;;28.30;99.90;;;;;;4179665;28;20103;-70
2022/06/06 21:24:28;;;;;;;3.92;1.30;;;28.30;99.90;;;;;;4179981;28;20052;-70
2022/06/06 21:26:45;;;;;;;3.20;0.98;;;28.30;99.90;;;;;;4179328;28;20504;-70